sensor_id;sensor_type;location;lat;lon;timestamp;pressure;altitude;pressure_sealevel;temperature;humidity
76201;BME280;64981;52.930;9.266;2023-03-26T00:00:45;100084.25;;;8.18;76.05
76201;BME280;64981;52.930;9.266;2023-03-26T00:03:15;100078.50;;;7.99;76.22
76201;BME280;64981;52.930;9.266;2023-03-26T00:05:43;100092.81;;;8.21;75.57
76201;BME280;64981;52.930;9.266;2023-03-26T00:08:09;100091.31;;;8.18;75.58
76201;BME280;64981;52.930;9.266;2023-03-26T00:10:38;100092.78;;;8.04;76.29
76201;BME280;64981;52.930;9.266;2023-03-26T00:13:05;100091.09;;;7.87;76.77
76201;BME280;64981;52.930;9.266;2023-03-26T00:15:32;100102.63;;;7.94;76.94
76201;BME280;64981;52.930;9.266;2023-03-26T00:17:58;100103.16;;;8.06;76.61
76201;BME280;64981;52.930;9.266;2023-03-26T00:20:26;100100.81;;;7.95;76.51
76201;BME280;64981;52.930;9.266;2023-03-26T00:22:52;100107.25;;;8.00;76.35
76201;BME280;64981;52.930;9.266;2023-03-26T00:25:20;100113.16;;;8.02;76.11
76201;BME280;64981;52.930;9.266;2023-03-26T00:27:46;100117.75;;;8.00;76.24
76201;BME280;64981;52.930;9.266;2023-03-26T00:30:13;100113.47;;;7.91;76.18
76201;BME280;64981;52.930;9.266;2023-03-26T00:32:39;100110.06;;;7.99;76.25
76201;BME280;64981;52.930;9.266;2023-03-26T00:35:05;100112.50;;;8.00;76.12
76201;BME280;64981;52.930;9.266;2023-03-26T00:37:31;100117.25;;;7.89;76.13
76201;BME280;64981;52.930;9.266;2023-03-26T00:39:58;100107.56;;;7.97;75.53
76201;BME280;64981;52.930;9.266;2023-03-26T00:42:29;100124.00;;;7.91;75.87
76201;BME280;64981;52.930;9.266;2023-03-26T00:44:56;100127.97;;;8.03;75.55
76201;BME280;64981;52.930;9.266;2023-03-26T00:47:24;100124.50;;;7.95;75.55
76201;BME280;64981;52.930;9.266;2023-03-26T00:49:50;100123.84;;;7.93;75.54
76201;BME280;64981;52.930;9.266;2023-03-26T00:52:16;100127.31;;;8.01;75.19
76201;BME280;64981;52.930;9.266;2023-03-26T00:54:50;100141.47;;;8.08;74.96
76201;BME280;64981;52.930;9.266;2023-03-26T00:57:18;100127.28;;;7.93;74.82
76201;BME280;64981;52.930;9.266;2023-03-26T00:59:47;100129.25;;;7.99;74.59
76201;BME280;64981;52.930;9.266;2023-03-26T01:02:15;100128.28;;;7.92;74.71
76201;BME280;64981;52.930;9.266;2023-03-26T01:04:49;100131.53;;;7.86;74.63
76201;BME280;64981;52.930;9.266;2023-03-26T01:07:22;100133.69;;;7.91;75.17
76201;BME280;64981;52.930;9.266;2023-03-26T01:09:56;100138.75;;;7.84;75.29
76201;BME280;64981;52.930;9.266;2023-03-26T01:12:27;100138.44;;;7.87;75.84
76201;BME280;64981;52.930;9.266;2023-03-26T01:14:57;100131.72;;;7.93;75.36
76201;BME280;64981;52.930;9.266;2023-03-26T01:17:26;100142.38;;;7.83;76.03
76201;BME280;64981;52.930;9.266;2023-03-26T01:20:09;100136.75;;;7.78;76.76
76201;BME280;64981;52.930;9.266;2023-03-26T01:22:43;100141.06;;;7.87;76.62
76201;BME280;64981;52.930;9.266;2023-03-26T01:25:10;100140.91;;;7.89;76.49
76201;BME280;64981;52.930;9.266;2023-03-26T01:27:43;100144.31;;;7.81;76.87
76201;BME280;64981;52.930;9.266;2023-03-26T01:33:26;100151.69;;;7.78;77.49
76201;BME280;64981;52.930;9.266;2023-03-26T01:36:16;100141.03;;;7.79;77.46
76201;BME280;64981;52.930;9.266;2023-03-26T01:38:57;100128.53;;;7.73;77.28
76201;BME280;64981;52.930;9.266;2023-03-26T01:41:32;100164.72;;;7.87;77.96
76201;BME280;64981;52.930;9.266;2023-03-26T01:44:19;100161.97;;;7.97;77.68
76201;BME280;64981;52.930;9.266;2023-03-26T01:46:48;100153.56;;;7.85;77.79
76201;BME280;64981;52.930;9.266;2023-03-26T01:49:17;100148.81;;;7.89;76.39
76201;BME280;64981;52.930;9.266;2023-03-26T01:51:43;100144.63;;;7.70;76.16
76201;BME280;64981;52.930;9.266;2023-03-26T01:54:15;100152.25;;;7.55;76.80
76201;BME280;64981;52.930;9.266;2023-03-26T01:57:02;100161.38;;;7.43;76.78
76201;BME280;64981;52.930;9.266;2023-03-26T01:59:45;100146.31;;;7.45;76.69
76201;BME280;64981;52.930;9.266;2023-03-26T02:05:25;100154.34;;;7.44;76.88
76201;BME280;64981;52.930;9.266;2023-03-26T02:08:10;100150.44;;;7.22;77.43
76201;BME280;64981;52.930;9.266;2023-03-26T02:10:44;100152.00;;;7.33;77.52
76201;BME280;64981;52.930;9.266;2023-03-26T02:13:12;100149.88;;;7.36;77.74
76201;BME280;64981;52.930;9.266;2023-03-26T02:15:39;100138.75;;;7.17;78.26
76201;BME280;64981;52.930;9.266;2023-03-26T02:18:06;100146.53;;;7.26;78.31
76201;BME280;64981;52.930;9.266;2023-03-26T02:20:36;100150.03;;;7.35;78.47
76201;BME280;64981;52.930;9.266;2023-03-26T02:23:01;100142.56;;;7.22;78.39
76201;BME280;64981;52.930;9.266;2023-03-26T02:25:27;100151.31;;;7.31;78.43
76201;BME280;64981;52.930;9.266;2023-03-26T02:27:52;100134.72;;;7.30;78.09
76201;BME280;64981;52.930;9.266;2023-03-26T02:30:21;100150.03;;;7.35;78.32
76201;BME280;64981;52.930;9.266;2023-03-26T02:32:52;100139.16;;;7.30;77.85
76201;BME280;64981;52.930;9.266;2023-03-26T02:35:19;100143.31;;;7.40;77.68
76201;BME280;64981;52.930;9.266;2023-03-26T02:37:46;100145.53;;;7.27;77.54
76201;BME280;64981;52.930;9.266;2023-03-26T02:40:16;100121.56;;;7.30;77.28
76201;BME280;64981;52.930;9.266;2023-03-26T02:42:42;100122.66;;;7.45;77.27
76201;BME280;64981;52.930;9.266;2023-03-26T02:45:08;100123.13;;;7.41;77.08
76201;BME280;64981;52.930;9.266;2023-03-26T02:47:33;100133.63;;;7.41;76.59
76201;BME280;64981;52.930;9.266;2023-03-26T02:49:59;100122.81;;;7.44;76.40
76201;BME280;64981;52.930;9.266;2023-03-26T02:52:26;100123.34;;;7.55;75.33
76201;BME280;64981;52.930;9.266;2023-03-26T02:54:51;100121.97;;;7.43;75.02
76201;BME280;64981;52.930;9.266;2023-03-26T02:57:18;100121.84;;;7.45;74.72
76201;BME280;64981;52.930;9.266;2023-03-26T02:59:43;100130.56;;;7.45;75.83
76201;BME280;64981;52.930;9.266;2023-03-26T03:02:10;100126.56;;;7.41;76.31
76201;BME280;64981;52.930;9.266;2023-03-26T03:04:38;100120.16;;;7.36;75.68
76201;BME280;64981;52.930;9.266;2023-03-26T03:07:03;100123.47;;;7.46;75.93
76201;BME280;64981;52.930;9.266;2023-03-26T03:09:30;100116.78;;;7.51;75.61
76201;BME280;64981;52.930;9.266;2023-03-26T03:11:55;100119.00;;;7.38;76.10
76201;BME280;64981;52.930;9.266;2023-03-26T03:14:21;100114.59;;;7.39;75.95
76201;BME280;64981;52.930;9.266;2023-03-26T03:16:47;100115.56;;;7.38;75.66
76201;BME280;64981;52.930;9.266;2023-03-26T03:19:12;100116.19;;;7.32;76.51
76201;BME280;64981;52.930;9.266;2023-03-26T03:21:39;100113.25;;;7.35;76.18
76201;BME280;64981;52.930;9.266;2023-03-26T03:24:05;100118.69;;;7.41;75.71
76201;BME280;64981;52.930;9.266;2023-03-26T03:26:31;100117.75;;;7.50;75.67
76201;BME280;64981;52.930;9.266;2023-03-26T03:28:59;100114.78;;;7.45;75.78
76201;BME280;64981;52.930;9.266;2023-03-26T03:31:25;100115.75;;;7.44;76.02
76201;BME280;64981;52.930;9.266;2023-03-26T03:33:52;100123.63;;;7.44;76.23
76201;BME280;64981;52.930;9.266;2023-03-26T03:36:19;100122.66;;;7.45;76.21
76201;BME280;64981;52.930;9.266;2023-03-26T03:38:48;100113.16;;;7.52;76.49
76201;BME280;64981;52.930;9.266;2023-03-26T03:41:14;100116.97;;;7.58;76.47
76201;BME280;64981;52.930;9.266;2023-03-26T03:43:41;100119.44;;;7.59;76.43
76201;BME280;64981;52.930;9.266;2023-03-26T03:46:07;100118.09;;;7.55;76.37
76201;BME280;64981;52.930;9.266;2023-03-26T03:48:32;100122.56;;;7.63;76.34
76201;BME280;64981;52.930;9.266;2023-03-26T03:51:02;100118.28;;;7.62;76.29
76201;BME280;64981;52.930;9.266;2023-03-26T03:53:28;100113.00;;;7.54;76.77
76201;BME280;64981;52.930;9.266;2023-03-26T03:55:55;100119.63;;;7.66;76.26
76201;BME280;64981;52.930;9.266;2023-03-26T03:58:23;100112.88;;;7.63;76.21
76201;BME280;64981;52.930;9.266;2023-03-26T04:00:50;100120.28;;;7.68;76.43
76201;BME280;64981;52.930;9.266;2023-03-26T04:03:18;100122.72;;;7.61;76.57
76201;BME280;64981;52.930;9.266;2023-03-26T04:05:45;100116.84;;;7.68;76.88
76201;BME280;64981;52.930;9.266;2023-03-26T04:08:15;100118.78;;;7.65;76.21
76201;BME280;64981;52.930;9.266;2023-03-26T04:10:42;100120.13;;;7.70;76.47
76201;BME280;64981;52.930;9.266;2023-03-26T04:13:09;100118.03;;;7.73;76.08
76201;BME280;64981;52.930;9.266;2023-03-26T04:15:35;100114.88;;;7.70;76.06
76201;BME280;64981;52.930;9.266;2023-03-26T04:18:01;100113.03;;;7.62;76.03
76201;BME280;64981;52.930;9.266;2023-03-26T04:20:26;100113.66;;;7.56;76.18
76201;BME280;64981;52.930;9.266;2023-03-26T04:22:52;100110.56;;;7.60;76.13
76201;BME280;64981;52.930;9.266;2023-03-26T04:25:18;100105.84;;;7.64;76.18
76201;BME280;64981;52.930;9.266;2023-03-26T04:27:44;100110.25;;;7.63;75.51
76201;BME280;64981;52.930;9.266;2023-03-26T04:30:14;100103.34;;;7.62;75.13
76201;BME280;64981;52.930;9.266;2023-03-26T04:32:41;100101.09;;;7.68;75.01
76201;BME280;64981;52.930;9.266;2023-03-26T04:35:12;100091.34;;;7.60;75.04
76201;BME280;64981;52.930;9.266;2023-03-26T04:37:41;100092.88;;;7.71;74.65
76201;BME280;64981;52.930;9.266;2023-03-26T04:40:15;100097.31;;;7.70;74.44
76201;BME280;64981;52.930;9.266;2023-03-26T04:42:41;100090.06;;;7.64;74.61
76201;BME280;64981;52.930;9.266;2023-03-26T04:45:12;100099.75;;;7.72;74.58
76201;BME280;64981;52.930;9.266;2023-03-26T04:47:38;100083.16;;;7.71;74.47
76201;BME280;64981;52.930;9.266;2023-03-26T04:50:06;100087.91;;;7.59;74.03
76201;BME280;64981;52.930;9.266;2023-03-26T04:52:33;100100.41;;;7.65;73.96
76201;BME280;64981;52.930;9.266;2023-03-26T04:54:59;100103.19;;;7.64;73.73
76201;BME280;64981;52.930;9.266;2023-03-26T04:57:36;100085.13;;;7.61;73.54
76201;BME280;64981;52.930;9.266;2023-03-26T05:00:05;100093.34;;;7.74;72.30
76201;BME280;64981;52.930;9.266;2023-03-26T05:02:45;100096.34;;;7.79;71.08
76201;BME280;64981;52.930;9.266;2023-03-26T05:05:15;100100.91;;;7.61;71.71
76201;BME280;64981;52.930;9.266;2023-03-26T05:07:42;100091.81;;;7.55;71.27
76201;BME280;64981;52.930;9.266;2023-03-26T05:10:10;100100.38;;;7.57;71.25
76201;BME280;64981;52.930;9.266;2023-03-26T05:12:36;100100.41;;;7.65;70.96
76201;BME280;64981;52.930;9.266;2023-03-26T05:15:03;100100.53;;;7.56;71.33
76201;BME280;64981;52.930;9.266;2023-03-26T05:17:28;100092.94;;;7.45;71.54
76201;BME280;64981;52.930;9.266;2023-03-26T05:19:55;100102.94;;;7.41;71.37
76201;BME280;64981;52.930;9.266;2023-03-26T05:22:21;100107.44;;;7.57;71.13
76201;BME280;64981;52.930;9.266;2023-03-26T05:24:47;100110.31;;;7.46;70.71
76201;BME280;64981;52.930;9.266;2023-03-26T05:27:15;100119.22;;;7.45;70.65
76201;BME280;64981;52.930;9.266;2023-03-26T05:29:45;100114.97;;;7.52;70.39
76201;BME280;64981;52.930;9.266;2023-03-26T05:32:11;100124.50;;;7.53;71.23
76201;BME280;64981;52.930;9.266;2023-03-26T05:34:38;100112.34;;;7.52;70.64
76201;BME280;64981;52.930;9.266;2023-03-26T05:37:04;100114.91;;;7.36;70.81
76201;BME280;64981;52.930;9.266;2023-03-26T05:39:32;100107.22;;;7.42;70.66
76201;BME280;64981;52.930;9.266;2023-03-26T05:41:57;100112.66;;;7.49;70.88
76201;BME280;64981;52.930;9.266;2023-03-26T05:44:23;100116.06;;;7.41;71.35
76201;BME280;64981;52.930;9.266;2023-03-26T05:46:48;100112.72;;;7.31;71.37
76201;BME280;64981;52.930;9.266;2023-03-26T05:49:14;100115.25;;;7.41;71.20
76201;BME280;64981;52.930;9.266;2023-03-26T05:51:40;100112.97;;;7.46;70.93
76201;BME280;64981;52.930;9.266;2023-03-26T05:54:05;100121.22;;;7.25;70.49
76201;BME280;64981;52.930;9.266;2023-03-26T05:56:31;100117.53;;;7.36;69.95
76201;BME280;64981;52.930;9.266;2023-03-26T05:58:56;100122.81;;;7.44;70.45
76201;BME280;64981;52.930;9.266;2023-03-26T06:01:22;100108.84;;;7.43;69.80
76201;BME280;64981;52.930;9.266;2023-03-26T06:03:50;100114.09;;;7.43;69.19
76201;BME280;64981;52.930;9.266;2023-03-26T06:06:18;100112.28;;;7.44;69.71
76201;BME280;64981;52.930;9.266;2023-03-26T06:08:48;100097.59;;;7.25;69.31
76201;BME280;64981;52.930;9.266;2023-03-26T06:11:15;100106.38;;;7.42;69.48
76201;BME280;64981;52.930;9.266;2023-03-26T06:13:42;100105.91;;;7.46;68.74
76201;BME280;64981;52.930;9.266;2023-03-26T06:16:09;100106.06;;;7.45;68.95
76201;BME280;64981;52.930;9.266;2023-03-26T06:18:35;100099.69;;;7.47;68.45
76201;BME280;64981;52.930;9.266;2023-03-26T06:21:02;100104.09;;;7.47;68.21
76201;BME280;64981;52.930;9.266;2023-03-26T06:23:28;100092.25;;;7.43;67.81
76201;BME280;64981;52.930;9.266;2023-03-26T06:25:53;100085.38;;;7.50;67.71
76201;BME280;64981;52.930;9.266;2023-03-26T06:28:19;100104.31;;;7.61;67.69
76201;BME280;64981;52.930;9.266;2023-03-26T06:30:45;100090.91;;;7.81;67.23
76201;BME280;64981;52.930;9.266;2023-03-26T06:33:10;100098.19;;;7.95;66.72
76201;BME280;64981;52.930;9.266;2023-03-26T06:35:36;100094.25;;;7.91;66.08
76201;BME280;64981;52.930;9.266;2023-03-26T06:38:03;100096.75;;;8.08;66.62
76201;BME280;64981;52.930;9.266;2023-03-26T06:40:29;100098.06;;;8.12;66.25
76201;BME280;64981;52.930;9.266;2023-03-26T06:42:55;100100.03;;;8.18;66.15
76201;BME280;64981;52.930;9.266;2023-03-26T06:45:22;100106.31;;;8.26;65.27
76201;BME280;64981;52.930;9.266;2023-03-26T06:47:47;100094.13;;;8.25;64.82
76201;BME280;64981;52.930;9.266;2023-03-26T06:50:13;100103.69;;;8.17;65.36
76201;BME280;64981;52.930;9.266;2023-03-26T06:52:39;100108.94;;;8.17;65.89
76201;BME280;64981;52.930;9.266;2023-03-26T06:55:05;100101.22;;;8.32;64.49
76201;BME280;64981;52.930;9.266;2023-03-26T06:57:33;100116.84;;;8.26;63.87
76201;BME280;64981;52.930;9.266;2023-03-26T06:59:58;100103.84;;;8.24;63.97
76201;BME280;64981;52.930;9.266;2023-03-26T07:02:24;100102.84;;;8.17;63.95
76201;BME280;64981;52.930;9.266;2023-03-26T07:04:49;100097.28;;;8.36;64.09
76201;BME280;64981;52.930;9.266;2023-03-26T07:07:15;100106.63;;;8.31;63.53
76201;BME280;64981;52.930;9.266;2023-03-26T07:09:42;100099.41;;;8.33;64.00
76201;BME280;64981;52.930;9.266;2023-03-26T07:12:08;100089.53;;;8.35;63.33
76201;BME280;64981;52.930;9.266;2023-03-26T07:14:34;100094.66;;;8.44;63.62
76201;BME280;64981;52.930;9.266;2023-03-26T07:17:03;100093.81;;;8.44;62.38
76201;BME280;64981;52.930;9.266;2023-03-26T07:19:28;100096.31;;;8.45;62.91
76201;BME280;64981;52.930;9.266;2023-03-26T07:21:54;100090.53;;;8.42;63.04
76201;BME280;64981;52.930;9.266;2023-03-26T07:24:20;100084.63;;;8.40;63.10
76201;BME280;64981;52.930;9.266;2023-03-26T07:29:55;100080.81;;;8.50;63.02
76201;BME280;64981;52.930;9.266;2023-03-26T07:32:46;100086.59;;;8.46;63.14
76201;BME280;64981;52.930;9.266;2023-03-26T07:35:34;100088.06;;;8.48;63.18
76201;BME280;64981;52.930;9.266;2023-03-26T07:38:24;100089.56;;;8.51;63.14
76201;BME280;64981;52.930;9.266;2023-03-26T07:41:28;100083.13;;;8.53;62.83
76201;BME280;64981;52.930;9.266;2023-03-26T07:44:15;100067.16;;;8.63;63.24
76201;BME280;64981;52.930;9.266;2023-03-26T07:46:47;100081.66;;;8.51;62.57
76201;BME280;64981;52.930;9.266;2023-03-26T07:49:13;100078.03;;;8.44;62.77
76201;BME280;64981;52.930;9.266;2023-03-26T07:51:39;100071.47;;;8.48;62.81
76201;BME280;64981;52.930;9.266;2023-03-26T07:54:07;100082.97;;;8.55;62.93
76201;BME280;64981;52.930;9.266;2023-03-26T07:56:47;100083.63;;;8.57;62.91
76201;BME280;64981;52.930;9.266;2023-03-26T07:59:26;100087.41;;;8.62;63.34
76201;BME280;64981;52.930;9.266;2023-03-26T08:02:20;100084.13;;;8.60;64.13
76201;BME280;64981;52.930;9.266;2023-03-26T08:08:01;100071.59;;;8.62;63.87
76201;BME280;64981;52.930;9.266;2023-03-26T08:10:42;100073.94;;;8.57;63.47
76201;BME280;64981;52.930;9.266;2023-03-26T08:13:22;100074.44;;;8.77;63.10
76201;BME280;64981;52.930;9.266;2023-03-26T08:16:06;100077.25;;;8.67;63.44
76201;BME280;64981;52.930;9.266;2023-03-26T08:18:55;100083.63;;;8.65;63.17
76201;BME280;64981;52.930;9.266;2023-03-26T08:21:26;100086.44;;;8.71;63.20
76201;BME280;64981;52.930;9.266;2023-03-26T08:27:18;100067.84;;;8.81;62.83
76201;BME280;64981;52.930;9.266;2023-03-26T08:30:19;100078.69;;;8.78;62.74
76201;BME280;64981;52.930;9.266;2023-03-26T08:32:54;100078.22;;;8.66;62.77
76201;BME280;64981;52.930;9.266;2023-03-26T08:35:21;100082.97;;;8.55;63.12
76201;BME280;64981;52.930;9.266;2023-03-26T08:37:47;100085.75;;;8.53;64.00
76201;BME280;64981;52.930;9.266;2023-03-26T08:40:30;100088.56;;;8.60;63.78
76201;BME280;64981;52.930;9.266;2023-03-26T08:43:29;100084.13;;;8.60;63.97
76201;BME280;64981;52.930;9.266;2023-03-26T08:55:33;100084.97;;;8.69;63.90
76201;BME280;64981;52.930;9.266;2023-03-26T09:01:53;100089.91;;;8.80;62.98
76201;BME280;64981;52.930;9.266;2023-03-26T09:07:44;100099.09;;;8.84;61.59
76201;BME280;64981;52.930;9.266;2023-03-26T09:10:35;100092.38;;;8.74;62.37
76201;BME280;64981;52.930;9.266;2023-03-26T09:16:26;100098.94;;;8.86;62.19
76201;BME280;64981;52.930;9.266;2023-03-26T09:25:41;100097.94;;;8.62;63.06
76201;BME280;64981;52.930;9.266;2023-03-26T09:34:34;100115.22;;;8.33;62.73
76201;BME280;64981;52.930;9.266;2023-03-26T09:40:23;100099.59;;;8.39;62.19
76201;BME280;64981;52.930;9.266;2023-03-26T10:04:13;100111.91;;;8.63;60.45
76201;BME280;64981;52.930;9.266;2023-03-26T10:10:17;100109.13;;;8.56;59.81
76201;BME280;64981;52.930;9.266;2023-03-26T10:12:54;100113.09;;;8.60;58.21
76201;BME280;64981;52.930;9.266;2023-03-26T10:21:43;100104.03;;;8.95;58.86
76201;BME280;64981;52.930;9.266;2023-03-26T10:24:34;100097.78;;;8.88;58.32
76201;BME280;64981;52.930;9.266;2023-03-26T10:30:27;100077.75;;;9.34;58.61
76201;BME280;64981;52.930;9.266;2023-03-26T10:39:24;100077.16;;;10.16;54.72
76201;BME280;64981;52.930;9.266;2023-03-26T11:00:13;100072.16;;;10.67;53.40
76201;BME280;64981;52.930;9.266;2023-03-26T11:09:05;100072.81;;;10.69;53.05
76201;BME280;64981;52.930;9.266;2023-03-26T11:14:49;100067.09;;;10.80;51.97
76201;BME280;64981;52.930;9.266;2023-03-26T11:23:35;100088.81;;;10.90;50.83
76201;BME280;64981;52.930;9.266;2023-03-26T11:26:39;100085.81;;;10.93;50.38
76201;BME280;64981;52.930;9.266;2023-03-26T11:29:49;100091.72;;;10.95;49.58
76201;BME280;64981;52.930;9.266;2023-03-26T11:32:16;100095.09;;;10.89;50.99
76201;BME280;64981;52.930;9.266;2023-03-26T11:37:55;100082.13;;;10.94;50.40
76201;BME280;64981;52.930;9.266;2023-03-26T11:40:41;100088.81;;;11.05;50.02
76201;BME280;64981;52.930;9.266;2023-03-26T11:43:11;100079.28;;;11.18;50.45
76201;BME280;64981;52.930;9.266;2023-03-26T11:45:44;100084.91;;;11.30;50.09
76201;BME280;64981;52.930;9.266;2023-03-26T11:48:39;100078.97;;;11.43;50.20
76201;BME280;64981;52.930;9.266;2023-03-26T11:51:11;100075.78;;;11.47;50.46
76201;BME280;64981;52.930;9.266;2023-03-26T11:53:39;100074.41;;;11.80;49.98
76201;BME280;64981;52.930;9.266;2023-03-26T11:56:25;100071.91;;;11.94;47.95
76201;BME280;64981;52.930;9.266;2023-03-26T11:59:13;100072.00;;;11.85;49.24
76201;BME280;64981;52.930;9.266;2023-03-26T12:01:57;100067.53;;;11.86;49.67
76201;BME280;64981;52.930;9.266;2023-03-26T12:04:32;100068.00;;;11.89;47.71
76201;BME280;64981;52.930;9.266;2023-03-26T12:07:21;100074.94;;;11.90;47.66
76201;BME280;64981;52.930;9.266;2023-03-26T12:09:51;100070.94;;;12.01;47.00
76201;BME280;64981;52.930;9.266;2023-03-26T12:12:18;100068.97;;;12.03;48.45
76201;BME280;64981;52.930;9.266;2023-03-26T12:14:46;100068.69;;;11.98;46.99
76201;BME280;64981;52.930;9.266;2023-03-26T12:17:31;100064.13;;;11.92;47.50
76201;BME280;64981;52.930;9.266;2023-03-26T12:19:57;100066.50;;;12.23;46.40
76201;BME280;64981;52.930;9.266;2023-03-26T12:22:35;100066.31;;;12.03;46.86
76201;BME280;64981;52.930;9.266;2023-03-26T12:25:25;100055.91;;;12.02;47.07
76201;BME280;64981;52.930;9.266;2023-03-26T12:27:58;100063.59;;;12.18;47.09
76201;BME280;64981;52.930;9.266;2023-03-26T12:30:37;100054.31;;;12.28;46.61
76201;BME280;64981;52.930;9.266;2023-03-26T12:33:06;100060.06;;;12.53;47.39
76201;BME280;64981;52.930;9.266;2023-03-26T12:35:38;100041.16;;;12.84;44.72
76201;BME280;64981;52.930;9.266;2023-03-26T12:38:31;100049.38;;;13.30;45.10
76201;BME280;64981;52.930;9.266;2023-03-26T12:41:11;100054.72;;;13.36;43.75
76201;BME280;64981;52.930;9.266;2023-03-26T12:43:57;100064.56;;;13.42;43.23
76201;BME280;64981;52.930;9.266;2023-03-26T12:46:37;100056.84;;;13.54;42.50
76201;BME280;64981;52.930;9.266;2023-03-26T12:49:06;100057.75;;;13.74;43.18
76201;BME280;64981;52.930;9.266;2023-03-26T12:51:53;100049.19;;;13.85;42.31
76201;BME280;64981;52.930;9.266;2023-03-26T12:54:46;100064.63;;;14.29;42.27
76201;BME280;64981;52.930;9.266;2023-03-26T12:57:20;100051.13;;;14.11;42.07
76201;BME280;64981;52.930;9.266;2023-03-26T13:03:02;100060.38;;;14.81;40.18
76201;BME280;64981;52.930;9.266;2023-03-26T13:05:54;100061.56;;;15.11;39.92
76201;BME280;64981;52.930;9.266;2023-03-26T13:08:58;100060.38;;;14.81;39.69
76201;BME280;64981;52.930;9.266;2023-03-26T13:14:55;100053.81;;;14.70;40.40
76201;BME280;64981;52.930;9.266;2023-03-26T13:17:34;100060.75;;;14.19;40.29
76201;BME280;64981;52.930;9.266;2023-03-26T13:20:14;100061.66;;;13.91;41.63
76201;BME280;64981;52.930;9.266;2023-03-26T13:23:08;100066.88;;;13.59;41.94
76201;BME280;64981;52.930;9.266;2023-03-26T13:28:54;100063.69;;;13.35;42.43
76201;BME280;64981;52.930;9.266;2023-03-26T13:37:47;100063.22;;;12.70;43.79
76201;BME280;64981;52.930;9.266;2023-03-26T13:40:30;100067.25;;;12.38;43.89
76201;BME280;64981;52.930;9.266;2023-03-26T13:43:18;100063.47;;;12.05;44.40
76201;BME280;64981;52.930;9.266;2023-03-26T13:46:12;100062.09;;;12.30;44.01
76201;BME280;64981;52.930;9.266;2023-03-26T13:48:50;100060.50;;;12.35;43.05
76201;BME280;64981;52.930;9.266;2023-03-26T13:51:24;100047.97;;;12.23;43.43
76201;BME280;64981;52.930;9.266;2023-03-26T13:56:47;100057.09;;;12.20;43.45
76201;BME280;64981;52.930;9.266;2023-03-26T13:59:22;100049.09;;;12.14;43.63
76201;BME280;64981;52.930;9.266;2023-03-26T14:01:57;100057.25;;;12.12;44.40
76201;BME280;64981;52.930;9.266;2023-03-26T14:04:30;100054.91;;;12.24;44.13
76201;BME280;64981;52.930;9.266;2023-03-26T14:07:07;100059.88;;;12.12;43.75
76201;BME280;64981;52.930;9.266;2023-03-26T14:12:45;100039.91;;;12.31;44.33
76201;BME280;64981;52.930;9.266;2023-03-26T14:15:36;100048.75;;;12.44;43.42
76201;BME280;64981;52.930;9.266;2023-03-26T14:35:57;100057.94;;;12.70;42.41
76201;BME280;64981;52.930;9.266;2023-03-26T14:41:49;100050.47;;;12.52;43.12
76201;BME280;64981;52.930;9.266;2023-03-26T14:44:45;100050.25;;;12.54;43.29
76201;BME280;64981;52.930;9.266;2023-03-26T14:47:25;100048.09;;;12.64;42.42
76201;BME280;64981;52.930;9.266;2023-03-26T14:50:29;100044.34;;;12.52;41.36
76201;BME280;64981;52.930;9.266;2023-03-26T14:53:10;100040.69;;;12.31;41.97
76201;BME280;64981;52.930;9.266;2023-03-26T15:04:54;100061.09;;;11.74;43.49
76201;BME280;64981;52.930;9.266;2023-03-26T15:13:48;100069.22;;;11.43;43.76
76201;BME280;64981;52.930;9.266;2023-03-26T15:16:39;100075.78;;;11.32;44.51
76201;BME280;64981;52.930;9.266;2023-03-26T15:40:35;100063.78;;;11.15;44.35
76201;BME280;64981;52.930;9.266;2023-03-26T15:43:25;100088.09;;;11.11;44.54
76201;BME280;64981;52.930;9.266;2023-03-26T15:49:13;100084.88;;;10.86;45.55
76201;BME280;64981;52.930;9.266;2023-03-26T15:52:05;100084.44;;;10.97;45.26
76201;BME280;64981;52.930;9.266;2023-03-26T15:54:56;100094.00;;;10.61;45.22
76201;BME280;64981;52.930;9.266;2023-03-26T15:57:45;100095.78;;;10.46;46.19
76201;BME280;64981;52.930;9.266;2023-03-26T16:00:25;100084.75;;;10.42;45.57
76201;BME280;64981;52.930;9.266;2023-03-26T16:03:15;100092.78;;;10.26;45.96
76201;BME280;64981;52.930;9.266;2023-03-26T16:09:06;100099.59;;;10.20;46.33
76201;BME280;64981;52.930;9.266;2023-03-26T16:11:52;100104.53;;;10.15;46.89
76201;BME280;64981;52.930;9.266;2023-03-26T16:16:58;100106.59;;;10.05;46.39
76201;BME280;64981;52.930;9.266;2023-03-26T16:19:34;100107.41;;;9.75;47.31
76201;BME280;64981;52.930;9.266;2023-03-26T16:22:05;100110.72;;;9.69;47.37
76201;BME280;64981;52.930;9.266;2023-03-26T16:24:35;100119.44;;;9.77;47.15
76201;BME280;64981;52.930;9.266;2023-03-26T16:27:24;100125.00;;;9.83;47.46
76201;BME280;64981;52.930;9.266;2023-03-26T16:30:14;100139.44;;;9.56;47.53
76201;BME280;64981;52.930;9.266;2023-03-26T16:32:44;100121.41;;;9.29;47.64
76201;BME280;64981;52.930;9.266;2023-03-26T16:35:38;100127.47;;;9.37;47.71
76201;BME280;64981;52.930;9.266;2023-03-26T16:38:11;100143.00;;;9.24;46.78
76201;BME280;64981;52.930;9.266;2023-03-26T16:40:59;100141.47;;;9.38;47.34
76201;BME280;64981;52.930;9.266;2023-03-26T16:43:47;100143.53;;;9.11;47.86
76201;BME280;64981;52.930;9.266;2023-03-26T16:46:33;100151.13;;;8.98;47.82
76201;BME280;64981;52.930;9.266;2023-03-26T16:49:14;100156.03;;;8.61;48.77
76201;BME280;64981;52.930;9.266;2023-03-26T16:52:02;100162.91;;;8.62;48.61
76201;BME280;64981;52.930;9.266;2023-03-26T16:54:49;100149.97;;;8.68;48.37
76201;BME280;64981;52.930;9.266;2023-03-26T16:57:28;100165.22;;;8.49;48.90
76201;BME280;64981;52.930;9.266;2023-03-26T17:00:25;100156.47;;;8.32;49.74
76201;BME280;64981;52.930;9.266;2023-03-26T17:06:08;100183.09;;;7.79;51.35
76201;BME280;64981;52.930;9.266;2023-03-26T17:09:12;100184.16;;;8.02;51.10
76201;BME280;64981;52.930;9.266;2023-03-26T17:11:48;100185.69;;;7.71;52.21